sensor_id;sensor_type;location;lat;lon;timestamp;pressure;altitude;pressure_sealevel;temperature;humidity
3206;BME280;1615;53.602;11.418;2024-01-07T00:01:55;101682.88;;;1.92;70.63
3206;BME280;1615;53.602;11.418;2024-01-07T00:04:20;101621.13;;;1.38;71.11
3206;BME280;1615;53.602;11.418;2024-01-07T00:06:46;101697.22;;;1.92;71.49
3206;BME280;1615;53.602;11.418;2024-01-07T00:09:12;101732.66;;;2.15;70.96
3206;BME280;1615;53.602;11.418;2024-01-07T00:11:40;101725.22;;;2.11;70.51
3206;BME280;1615;53.602;11.418;2024-01-07T00:14:05;101719.81;;;2.11;70.36
3206;BME280;1615;53.602;11.418;2024-01-07T00:16:31;101703.56;;;2.11;70.43
3206;BME280;1615;53.602;11.418;2024-01-07T00:18:56;101716.69;;;2.14;70.18
3206;BME280;1615;53.602;11.418;2024-01-07T00:21:22;101602.63;;;1.42;69.60
3206;BME280;1615;53.602;11.418;2024-01-07T00:23:47;101698.91;;;1.87;69.56
3206;BME280;1615;53.602;11.418;2024-01-07T00:26:12;101619.47;;;1.44;69.22
3206;BME280;1615;53.602;11.418;2024-01-07T00:28:38;101701.81;;;1.92;69.74
3206;BME280;1615;53.602;11.418;2024-01-07T00:31:03;101761.13;;;2.31;69.72
3206;BME280;1615;53.602;11.418;2024-01-07T00:33:30;101775.44;;;2.38;70.30
3206;BME280;1615;53.602;11.418;2024-01-07T00:35:56;101693.25;;;1.95;69.63
3206;BME280;1615;53.602;11.418;2024-01-07T00:38:22;101754.66;;;2.32;69.48
3206;BME280;1615;53.602;11.418;2024-01-07T00:40:47;101670.81;;;1.88;69.35
3206;BME280;1615;53.602;11.418;2024-01-07T00:43:13;101742.84;;;2.20;68.85
3206;BME280;1615;53.602;11.418;2024-01-07T00:45:38;101524.09;;;0.80;69.30
3206;BME280;1615;53.602;11.418;2024-01-07T00:48:05;101763.84;;;2.24;68.42
3206;BME280;1615;53.602;11.418;2024-01-07T00:50:30;101736.88;;;2.11;69.21
3206;BME280;1615;53.602;11.418;2024-01-07T00:52:56;101753.59;;;2.33;69.58
3206;BME280;1615;53.602;11.418;2024-01-07T00:55:21;101746.53;;;2.32;68.77
3206;BME280;1615;53.602;11.418;2024-01-07T00:57:49;101649.41;;;1.86;68.50
3206;BME280;1615;53.602;11.418;2024-01-07T01:00:14;101763.13;;;2.48;68.66
3206;BME280;1615;53.602;11.418;2024-01-07T01:02:41;101624.00;;;1.50;68.13
3206;BME280;1615;53.602;11.418;2024-01-07T01:05:06;101774.19;;;2.40;68.57
3206;BME280;1615;53.602;11.418;2024-01-07T01:07:32;101650.97;;;1.63;68.89
3206;BME280;1615;53.602;11.418;2024-01-07T01:09:58;101697.41;;;1.97;68.39
3206;BME280;1615;53.602;11.418;2024-01-07T01:12:24;101629.59;;;1.55;68.14
3206;BME280;1615;53.602;11.418;2024-01-07T01:14:50;101773.38;;;2.40;68.89
3206;BME280;1615;53.602;11.418;2024-01-07T01:17:15;101589.97;;;1.36;68.55
3206;BME280;1615;53.602;11.418;2024-01-07T01:19:40;101757.91;;;2.47;68.32
3206;BME280;1615;53.602;11.418;2024-01-07T01:22:06;101784.66;;;2.68;68.20
3206;BME280;1615;53.602;11.418;2024-01-07T01:24:31;101737.94;;;2.41;68.09
3206;BME280;1615;53.602;11.418;2024-01-07T01:26:58;101768.25;;;2.63;67.96
3206;BME280;1615;53.602;11.418;2024-01-07T01:29:23;101745.47;;;2.39;67.79
3206;BME280;1615;53.602;11.418;2024-01-07T01:31:49;101803.16;;;2.71;67.28
3206;BME280;1615;53.602;11.418;2024-01-07T01:34:14;101791.56;;;2.57;68.41
3206;BME280;1615;53.602;11.418;2024-01-07T01:36:41;101767.69;;;2.48;67.70
3206;BME280;1615;53.602;11.418;2024-01-07T01:39:06;101807.81;;;2.57;67.37
3206;BME280;1615;53.602;11.418;2024-01-07T01:41:32;101803.13;;;2.40;67.40
3206;BME280;1615;53.602;11.418;2024-01-07T01:43:59;101807.91;;;2.38;67.99
3206;BME280;1615;53.602;11.418;2024-01-07T01:46:24;101600.44;;;1.13;67.78
3206;BME280;1615;53.602;11.418;2024-01-07T01:48:50;101535.56;;;0.62;68.21
3206;BME280;1615;53.602;11.418;2024-01-07T01:51:16;101829.09;;;2.47;68.42
3206;BME280;1615;53.602;11.418;2024-01-07T01:53:42;101708.28;;;1.78;67.42
3206;BME280;1615;53.602;11.418;2024-01-07T01:56:07;101687.78;;;1.51;67.22
3206;BME280;1615;53.602;11.418;2024-01-07T01:58:33;101843.00;;;2.57;66.97
3206;BME280;1615;53.602;11.418;2024-01-07T02:00:58;101849.03;;;2.59;67.54
3206;BME280;1615;53.602;11.418;2024-01-07T02:03:24;101857.16;;;2.59;67.63
3206;BME280;1615;53.602;11.418;2024-01-07T02:05:50;101847.53;;;2.70;67.41
3206;BME280;1615;53.602;11.418;2024-01-07T02:08:17;101790.81;;;2.44;67.65
3206;BME280;1615;53.602;11.418;2024-01-07T02:10:43;101825.69;;;2.65;67.36
3206;BME280;1615;53.602;11.418;2024-01-07T02:13:10;101841.06;;;2.71;67.04
3206;BME280;1615;53.602;11.418;2024-01-07T02:15:35;101828.56;;;2.70;67.44
3206;BME280;1615;53.602;11.418;2024-01-07T02:18:01;101867.31;;;2.70;67.80
3206;BME280;1615;53.602;11.418;2024-01-07T02:20:26;101764.50;;;2.20;68.37
3206;BME280;1615;53.602;11.418;2024-01-07T02:22:51;101849.31;;;2.89;68.84
3206;BME280;1615;53.602;11.418;2024-01-07T02:25:17;101851.19;;;2.88;68.67
3206;BME280;1615;53.602;11.418;2024-01-07T02:27:42;101753.50;;;2.15;68.84
3206;BME280;1615;53.602;11.418;2024-01-07T02:30:08;101834.38;;;2.73;69.04
3206;BME280;1615;53.602;11.418;2024-01-07T02:32:33;101864.41;;;2.65;69.83
3206;BME280;1615;53.602;11.418;2024-01-07T02:35:01;101713.91;;;1.70;71.19
3206;BME280;1615;53.602;11.418;2024-01-07T02:37:26;101765.34;;;2.14;70.94
3206;BME280;1615;53.602;11.418;2024-01-07T02:39:52;101740.66;;;1.97;71.09
3206;BME280;1615;53.602;11.418;2024-01-07T02:42:17;101844.44;;;2.60;71.34
3206;BME280;1615;53.602;11.418;2024-01-07T02:44:42;101822.22;;;2.45;71.56
3206;BME280;1615;53.602;11.418;2024-01-07T02:47:08;101850.50;;;2.55;70.91
3206;BME280;1615;53.602;11.418;2024-01-07T02:49:33;101856.09;;;2.60;70.79
3206;BME280;1615;53.602;11.418;2024-01-07T02:51:59;101823.06;;;2.45;71.39
3206;BME280;1615;53.602;11.418;2024-01-07T02:54:24;101741.13;;;1.88;71.44
3206;BME280;1615;53.602;11.418;2024-01-07T02:56:49;101850.69;;;2.67;71.42
3206;BME280;1615;53.602;11.418;2024-01-07T02:59:15;101881.41;;;2.85;71.13
3206;BME280;1615;53.602;11.418;2024-01-07T03:01:40;101870.97;;;2.89;70.83
3206;BME280;1615;53.602;11.418;2024-01-07T03:04:10;101883.38;;;3.03;70.60
3206;BME280;1615;53.602;11.418;2024-01-07T03:06:36;101886.84;;;2.79;70.48
3206;BME280;1615;53.602;11.418;2024-01-07T03:09:01;101881.53;;;2.97;70.91
3206;BME280;1615;53.602;11.418;2024-01-07T03:11:26;101887.78;;;3.04;71.07
3206;BME280;1615;53.602;11.418;2024-01-07T03:13:52;101887.13;;;3.08;70.38
3206;BME280;1615;53.602;11.418;2024-01-07T03:16:21;101876.78;;;2.92;70.57
3206;BME280;1615;53.602;11.418;2024-01-07T03:18:46;101886.59;;;2.87;70.36
3206;BME280;1615;53.602;11.418;2024-01-07T03:21:22;101872.53;;;2.72;70.82
3206;BME280;1615;53.602;11.418;2024-01-07T03:23:49;101866.91;;;2.67;71.53
3206;BME280;1615;53.602;11.418;2024-01-07T03:26:16;101896.44;;;2.75;70.91
3206;BME280;1615;53.602;11.418;2024-01-07T03:28:41;101885.25;;;2.58;70.90
3206;BME280;1615;53.602;11.418;2024-01-07T03:31:09;101885.03;;;2.60;71.55
3206;BME280;1615;53.602;11.418;2024-01-07T03:33:35;101792.63;;;2.06;72.02
3206;BME280;1615;53.602;11.418;2024-01-07T03:36:00;101784.50;;;2.12;72.36
3206;BME280;1615;53.602;11.418;2024-01-07T03:38:25;101883.13;;;2.73;72.15
3206;BME280;1615;53.602;11.418;2024-01-07T03:40:51;101874.88;;;2.49;71.85
3206;BME280;1615;53.602;11.418;2024-01-07T03:43:16;101862.59;;;2.46;72.01
3206;BME280;1615;53.602;11.418;2024-01-07T03:45:41;101858.22;;;2.52;72.58
3206;BME280;1615;53.602;11.418;2024-01-07T03:48:08;101701.50;;;1.43;72.30
3206;BME280;1615;53.602;11.418;2024-01-07T03:50:34;101878.16;;;2.64;72.53
3206;BME280;1615;53.602;11.418;2024-01-07T03:52:59;101876.06;;;2.66;72.33
3206;BME280;1615;53.602;11.418;2024-01-07T03:55:24;101857.56;;;2.56;72.34
3206;BME280;1615;53.602;11.418;2024-01-07T03:57:49;101907.66;;;2.78;73.23
3206;BME280;1615;53.602;11.418;2024-01-07T04:00:15;101855.13;;;2.48;73.09
3206;BME280;1615;53.602;11.418;2024-01-07T04:02:41;101856.34;;;2.52;73.55
3206;BME280;1615;53.602;11.418;2024-01-07T04:05:07;101818.72;;;2.38;73.99
3206;BME280;1615;53.602;11.418;2024-01-07T04:07:32;101859.88;;;2.53;73.05
3206;BME280;1615;53.602;11.418;2024-01-07T04:09:58;101870.69;;;2.59;73.02
3206;BME280;1615;53.602;11.418;2024-01-07T04:12:23;101856.16;;;2.47;73.01
3206;BME280;1615;53.602;11.418;2024-01-07T04:14:48;101860.75;;;2.47;72.35
3206;BME280;1615;53.602;11.418;2024-01-07T04:17:14;101909.41;;;2.60;72.39
3206;BME280;1615;53.602;11.418;2024-01-07T04:19:39;101934.78;;;2.72;72.70
3206;BME280;1615;53.602;11.418;2024-01-07T04:22:04;101900.88;;;2.56;73.00
3206;BME280;1615;53.602;11.418;2024-01-07T04:24:30;101928.94;;;2.75;73.74
3206;BME280;1615;53.602;11.418;2024-01-07T04:26:55;101924.31;;;2.82;74.09
3206;BME280;1615;53.602;11.418;2024-01-07T04:29:20;101942.66;;;2.80;74.24
3206;BME280;1615;53.602;11.418;2024-01-07T04:31:46;101898.16;;;2.63;74.17
3206;BME280;1615;53.602;11.418;2024-01-07T04:34:11;101931.63;;;2.81;74.87
3206;BME280;1615;53.602;11.418;2024-01-07T04:36:36;101913.13;;;2.72;75.24
3206;BME280;1615;53.602;11.418;2024-01-07T04:39:02;101926.78;;;2.90;75.73
3206;BME280;1615;53.602;11.418;2024-01-07T04:41:27;101911.22;;;2.79;76.36
3206;BME280;1615;53.602;11.418;2024-01-07T04:43:52;101658.53;;;1.28;76.72
3206;BME280;1615;53.602;11.418;2024-01-07T04:46:18;101887.38;;;2.50;77.10
3206;BME280;1615;53.602;11.418;2024-01-07T04:48:43;101901.13;;;2.48;77.50
3206;BME280;1615;53.602;11.418;2024-01-07T04:51:08;101926.69;;;2.59;78.03
3206;BME280;1615;53.602;11.418;2024-01-07T04:53:33;101949.38;;;2.64;78.59
3206;BME280;1615;53.602;11.418;2024-01-07T04:55:59;101934.81;;;2.59;78.96
3206;BME280;1615;53.602;11.418;2024-01-07T04:58:24;101933.56;;;2.55;79.59
3206;BME280;1615;53.602;11.418;2024-01-07T05:00:49;101880.97;;;2.38;79.70
3206;BME280;1615;53.602;11.418;2024-01-07T05:03:15;101798.50;;;1.90;79.49
3206;BME280;1615;53.602;11.418;2024-01-07T05:05:40;101890.25;;;2.55;79.48
3206;BME280;1615;53.602;11.418;2024-01-07T05:08:06;101927.47;;;2.72;79.71
3206;BME280;1615;53.602;11.418;2024-01-07T05:10:31;101931.63;;;2.75;79.36
3206;BME280;1615;53.602;11.418;2024-01-07T05:12:57;101932.91;;;2.66;79.30
3206;BME280;1615;53.602;11.418;2024-01-07T05:15:22;101917.78;;;2.52;79.75
3206;BME280;1615;53.602;11.418;2024-01-07T05:17:47;101717.91;;;1.48;79.08
3206;BME280;1615;53.602;11.418;2024-01-07T05:20:15;101946.78;;;2.89;78.72
3206;BME280;1615;53.602;11.418;2024-01-07T05:22:42;101906.94;;;2.52;77.47
3206;BME280;1615;53.602;11.418;2024-01-07T05:25:07;101942.78;;;2.41;76.98
3206;BME280;1615;53.602;11.418;2024-01-07T05:27:33;101948.59;;;2.51;77.81
3206;BME280;1615;53.602;11.418;2024-01-07T05:29:58;101920.09;;;2.42;78.51
3206;BME280;1615;53.602;11.418;2024-01-07T05:32:23;101847.16;;;2.03;78.02
3206;BME280;1615;53.602;11.418;2024-01-07T05:34:49;101952.69;;;2.73;77.73
3206;BME280;1615;53.602;11.418;2024-01-07T05:37:15;101887.22;;;2.38;77.45
3206;BME280;1615;53.602;11.418;2024-01-07T05:39:40;101863.34;;;2.09;77.18
3206;BME280;1615;53.602;11.418;2024-01-07T05:42:06;101931.91;;;2.54;77.49
3206;BME280;1615;53.602;11.418;2024-01-07T05:44:31;101898.25;;;2.37;77.16
3206;BME280;1615;53.602;11.418;2024-01-07T05:46:56;101922.72;;;2.61;76.76
3206;BME280;1615;53.602;11.418;2024-01-07T05:49:21;101890.25;;;2.55;76.09
3206;BME280;1615;53.602;11.418;2024-01-07T05:51:47;101976.28;;;3.10;75.51
3206;BME280;1615;53.602;11.418;2024-01-07T05:54:12;101907.53;;;2.67;73.45
3206;BME280;1615;53.602;11.418;2024-01-07T05:56:41;101972.53;;;3.11;73.07
3206;BME280;1615;53.602;11.418;2024-01-07T05:59:07;101974.44;;;3.04;73.63
3206;BME280;1615;53.602;11.418;2024-01-07T06:01:32;101979.50;;;2.94;73.06
3206;BME280;1615;53.602;11.418;2024-01-07T06:03:58;101937.72;;;2.64;73.53
3206;BME280;1615;53.602;11.418;2024-01-07T06:06:23;101789.59;;;1.70;72.13
3206;BME280;1615;53.602;11.418;2024-01-07T06:08:48;101984.72;;;2.82;72.16
3206;BME280;1615;53.602;11.418;2024-01-07T06:11:14;101962.69;;;2.66;72.17
3206;BME280;1615;53.602;11.418;2024-01-07T06:13:44;102005.72;;;3.00;71.90
3206;BME280;1615;53.602;11.418;2024-01-07T06:16:09;101956.72;;;2.51;71.41
3206;BME280;1615;53.602;11.418;2024-01-07T06:18:35;101982.28;;;2.61;71.11
3206;BME280;1615;53.602;11.418;2024-01-07T06:21:00;101846.34;;;1.70;70.89
3206;BME280;1615;53.602;11.418;2024-01-07T06:23:25;101992.28;;;2.41;71.24
3206;BME280;1615;53.602;11.418;2024-01-07T06:25:50;101995.84;;;2.48;71.61
3206;BME280;1615;53.602;11.418;2024-01-07T06:28:16;101969.00;;;2.34;71.72
3206;BME280;1615;53.602;11.418;2024-01-07T06:30:41;101932.34;;;2.38;71.77
3206;BME280;1615;53.602;11.418;2024-01-07T06:33:06;102027.19;;;2.95;71.33
3206;BME280;1615;53.602;11.418;2024-01-07T06:35:31;102016.34;;;2.88;71.26
3206;BME280;1615;53.602;11.418;2024-01-07T06:37:57;102031.53;;;2.96;70.57
3206;BME280;1615;53.602;11.418;2024-01-07T06:40:22;101974.16;;;2.55;70.54
3206;BME280;1615;53.602;11.418;2024-01-07T06:42:48;102047.59;;;3.04;70.41
3206;BME280;1615;53.602;11.418;2024-01-07T06:45:14;101933.81;;;2.34;69.86
3206;BME280;1615;53.602;11.418;2024-01-07T06:47:40;102014.72;;;2.81;70.13
3206;BME280;1615;53.602;11.418;2024-01-07T06:50:05;102038.41;;;2.98;69.91
3206;BME280;1615;53.602;11.418;2024-01-07T06:52:31;102024.72;;;2.74;69.48
3206;BME280;1615;53.602;11.418;2024-01-07T06:54:56;102057.81;;;2.89;69.79
3206;BME280;1615;53.602;11.418;2024-01-07T06:57:21;102058.03;;;2.81;69.02
3206;BME280;1615;53.602;11.418;2024-01-07T06:59:47;102013.50;;;2.57;69.56
3206;BME280;1615;53.602;11.418;2024-01-07T07:02:12;102014.59;;;2.43;70.13
3206;BME280;1615;53.602;11.418;2024-01-07T07:04:37;102038.09;;;2.43;70.38
3206;BME280;1615;53.602;11.418;2024-01-07T07:07:03;102012.28;;;2.34;71.21
3206;BME280;1615;53.602;11.418;2024-01-07T07:09:28;102046.00;;;2.44;72.19
3206;BME280;1615;53.602;11.418;2024-01-07T07:11:53;101971.53;;;2.03;72.30
3206;BME280;1615;53.602;11.418;2024-01-07T07:14:19;102029.97;;;2.36;71.86
3206;BME280;1615;53.602;11.418;2024-01-07T07:16:44;102031.84;;;2.23;71.74
3206;BME280;1615;53.602;11.418;2024-01-07T07:19:09;102041.81;;;2.29;72.70
3206;BME280;1615;53.602;11.418;2024-01-07T07:21:39;102104.72;;;2.37;73.81
3206;BME280;1615;53.602;11.418;2024-01-07T07:24:05;102094.28;;;2.34;75.04
3206;BME280;1615;53.602;11.418;2024-01-07T07:26:30;102069.91;;;2.08;76.82
3206;BME280;1615;53.602;11.418;2024-01-07T07:28:56;102019.31;;;1.70;78.25
3206;BME280;1615;53.602;11.418;2024-01-07T07:31:22;101948.13;;;1.24;79.80
3206;BME280;1615;53.602;11.418;2024-01-07T07:33:47;102032.19;;;1.55;81.65
3206;BME280;1615;53.602;11.418;2024-01-07T07:36:13;102086.53;;;1.99;82.61
3206;BME280;1615;53.602;11.418;2024-01-07T07:38:38;102096.94;;;2.02;83.83
3206;BME280;1615;53.602;11.418;2024-01-07T07:41:03;102034.88;;;1.55;85.01
3206;BME280;1615;53.602;11.418;2024-01-07T07:43:29;102113.81;;;2.04;85.52
3206;BME280;1615;53.602;11.418;2024-01-07T07:45:54;102129.63;;;2.13;86.15
3206;BME280;1615;53.602;11.418;2024-01-07T07:48:20;102120.66;;;2.00;87.33
3206;BME280;1615;53.602;11.418;2024-01-07T07:50:45;101964.84;;;1.00;88.26
3206;BME280;1615;53.602;11.418;2024-01-07T07:53:11;102005.66;;;1.18;89.50
3206;BME280;1615;53.602;11.418;2024-01-07T07:55:36;102025.81;;;1.22;90.79
3206;BME280;1615;53.602;11.418;2024-01-07T07:58:01;102123.28;;;1.74;91.77
3206;BME280;1615;53.602;11.418;2024-01-07T08:00:27;102127.19;;;1.65;92.13
3206;BME280;1615;53.602;11.418;2024-01-07T08:02:52;101945.06;;;0.80;92.43
3206;BME280;1615;53.602;11.418;2024-01-07T08:05:18;102142.50;;;2.05;92.06
3206;BME280;1615;53.602;11.418;2024-01-07T08:07:43;102115.34;;;1.66;92.72
3206;BME280;1615;53.602;11.418;2024-01-07T08:10:09;102126.44;;;1.84;93.18
3206;BME280;1615;53.602;11.418;2024-01-07T08:12:34;102150.19;;;1.95;93.42
3206;BME280;1615;53.602;11.418;2024-01-07T08:15:00;102167.47;;;2.00;93.97
3206;BME280;1615;53.602;11.418;2024-01-07T08:17:25;102097.81;;;1.42;94.43
3206;BME280;1615;53.602;11.418;2024-01-07T08:19:51;102178.88;;;1.89;94.88
3206;BME280;1615;53.602;11.418;2024-01-07T08:22:17;102065.69;;;1.20;94.72
3206;BME280;1615;53.602;11.418;2024-01-07T08:24:42;102179.63;;;1.70;95.39
3206;BME280;1615;53.602;11.418;2024-01-07T08:27:08;102165.47;;;1.68;94.80
3206;BME280;1615;53.602;11.418;2024-01-07T08:29:34;102179.41;;;1.78;95.10
3206;BME280;1615;53.602;11.418;2024-01-07T08:32:00;102169.47;;;1.79;94.80
3206;BME280;1615;53.602;11.418;2024-01-07T08:34:26;102173.00;;;1.86;95.01
3206;BME280;1615;53.602;11.418;2024-01-07T08:36:52;102147.84;;;1.79;94.32
3206;BME280;1615;53.602;11.418;2024-01-07T08:39:19;102174.56;;;2.08;93.48
3206;BME280;1615;53.602;11.418;2024-01-07T08:41:44;102045.00;;;1.40;92.41
3206;BME280;1615;53.602;11.418;2024-01-07T08:44:10;102188.34;;;2.26;91.38
3206;BME280;1615;53.602;11.418;2024-01-07T08:46:36;102174.63;;;2.34;89.96
3206;BME280;1615;53.602;11.418;2024-01-07T08:49:01;102185.47;;;2.40;89.04
3206;BME280;1615;53.602;11.418;2024-01-07T08:51:27;102180.84;;;2.28;87.54
3206;BME280;1615;53.602;11.418;2024-01-07T08:53:52;102125.63;;;1.90;87.99
3206;BME280;1615;53.602;11.418;2024-01-07T08:56:17;102170.59;;;2.10;87.08
3206;BME280;1615;53.602;11.418;2024-01-07T08:58:43;102182.47;;;2.03;87.33
3206;BME280;1615;53.602;11.418;2024-01-07T09:01:08;102199.94;;;2.07;87.58
3206;BME280;1615;53.602;11.418;2024-01-07T09:03:34;102193.75;;;2.26;87.32
3206;BME280;1615;53.602;11.418;2024-01-07T09:05:59;102173.78;;;2.27;86.29
3206;BME280;1615;53.602;11.418;2024-01-07T09:08:24;102195.03;;;2.30;85.48
3206;BME280;1615;53.602;11.418;2024-01-07T09:10:50;102207.53;;;2.44;84.18
3206;BME280;1615;53.602;11.418;2024-01-07T09:13:15;102210.81;;;2.26;83.78
3206;BME280;1615;53.602;11.418;2024-01-07T09:15:41;102188.88;;;2.02;84.75
3206;BME280;1615;53.602;11.418;2024-01-07T09:18:06;102207.38;;;1.92;85.61
3206;BME280;1615;53.602;11.418;2024-01-07T09:20:31;102183.59;;;1.81;85.76
3206;BME280;1615;53.602;11.418;2024-01-07T09:22:57;102179.50;;;1.91;86.05
3206;BME280;1615;53.602;11.418;2024-01-07T09:25:22;102109.66;;;1.48;85.77
3206;BME280;1615;53.602;11.418;2024-01-07T09:27:47;102205.75;;;2.04;85.20
3206;BME280;1615;53.602;11.418;2024-01-07T09:30:13;102205.69;;;1.84;85.44
3206;BME280;1615;53.602;11.418;2024-01-07T09:32:42;102260.66;;;1.98;85.56
3206;BME280;1615;53.602;11.418;2024-01-07T09:35:08;102179.84;;;1.75;85.24
3206;BME280;1615;53.602;11.418;2024-01-07T09:37:33;102220.22;;;1.83;85.57
3206;BME280;1615;53.602;11.418;2024-01-07T09:40:00;102247.69;;;1.87;85.35
3206;BME280;1615;53.602;11.418;2024-01-07T09:42:26;102176.47;;;1.67;84.94
3206;BME280;1615;53.602;11.418;2024-01-07T09:44:51;102228.59;;;1.95;85.40
3206;BME280;1615;53.602;11.418;2024-01-07T09:47:17;102050.19;;;0.94;85.43
3206;BME280;1615;53.602;11.418;2024-01-07T09:49:43;102224.53;;;2.18;85.14
3206;BME280;1615;53.602;11.418;2024-01-07T09:52:09;102182.00;;;1.93;84.35
3206;BME280;1615;53.602;11.418;2024-01-07T09:54:39;102195.97;;;2.03;83.34
3206;BME280;1615;53.602;11.418;2024-01-07T09:57:06;102230.38;;;2.22;82.64
3206;BME280;1615;53.602;11.418;2024-01-07T09:59:32;102203.44;;;2.01;82.97
3206;BME280;1615;53.602;11.418;2024-01-07T10:01:58;102137.31;;;1.50;82.70
3206;BME280;1615;53.602;11.418;2024-01-07T10:04:24;102206.22;;;2.14;82.88
3206;BME280;1615;53.602;11.418;2024-01-07T10:06:50;102205.16;;;2.15;82.57
3206;BME280;1615;53.602;11.418;2024-01-07T10:09:17;102234.72;;;2.16;81.86
3206;BME280;1615;53.602;11.418;2024-01-07T10:11:43;102224.34;;;2.33;81.03
3206;BME280;1615;53.602;11.418;2024-01-07T10:14:09;102190.22;;;2.19;81.08
3206;BME280;1615;53.602;11.418;2024-01-07T10:16:34;102194.19;;;2.36;79.56
3206;BME280;1615;53.602;11.418;2024-01-07T10:18:59;102204.78;;;2.24;78.72
3206;BME280;1615;53.602;11.418;2024-01-07T10:21:25;102219.16;;;2.38;78.52
3206;BME280;1615;53.602;11.418;2024-01-07T10:23:50;102200.88;;;2.40;77.95
3206;BME280;1615;53.602;11.418;2024-01-07T10:26:16;102216.50;;;2.44;76.71
3206;BME280;1615;53.602;11.418;2024-01-07T10:28:41;102215.66;;;2.37;76.52
3206;BME280;1615;53.602;11.418;2024-01-07T10:31:08;102171.25;;;2.12;75.43
3206;BME280;1615;53.602;11.418;2024-01-07T10:33:34;102191.22;;;2.11;74.88
3206;BME280;1615;53.602;11.418;2024-01-07T10:36:05;102072.81;;;1.34;74.89
3206;BME280;1615;53.602;11.418;2024-01-07T10:38:34;102100.78;;;1.60;74.18
3206;BME280;1615;53.602;11.418;2024-01-07T10:41:00;102141.81;;;1.77;74.24
3206;BME280;1615;53.602;11.418;2024-01-07T10:43:29;102239.16;;;2.37;74.14
3206;BME280;1615;53.602;11.418;2024-01-07T10:45:55;102064.16;;;1.45;73.43
3206;BME280;1615;53.602;11.418;2024-01-07T10:48:25;102234.63;;;2.50;72.73
3206;BME280;1615;53.602;11.418;2024-01-07T10:50:55;102205.03;;;2.49;72.04
3206;BME280;1615;53.602;11.418;2024-01-07T10:53:21;102230.91;;;2.77;71.54
3206;BME280;1615;53.602;11.418;2024-01-07T10:55:54;102249.47;;;2.80;69.85
3206;BME280;1615;53.602;11.418;2024-01-07T10:58:20;102172.13;;;2.39;68.53
3206;BME280;1615;53.602;11.418;2024-01-07T11:00:46;102246.31;;;2.83;68.11
3206;BME280;1615;53.602;11.418;2024-01-07T11:03:20;102232.78;;;2.83;67.53
3206;BME280;1615;53.602;11.418;2024-01-07T11:05:56;102230.72;;;2.79;67.43
3206;BME280;1615;53.602;11.418;2024-01-07T11:08:35;102201.34;;;2.69;67.00
3206;BME280;1615;53.602;11.418;2024-01-07T11:11:14;102243.41;;;2.85;66.79
3206;BME280;1615;53.602;11.418;2024-01-07T11:13:41;102209.88;;;2.79;66.59
3206;BME280;1615;53.602;11.418;2024-01-07T11:16:10;102204.91;;;2.83;66.04
3206;BME280;1615;53.602;11.418;2024-01-07T11:18:59;102236.75;;;3.00;65.52
3206;BME280;1615;53.602;11.418;2024-01-07T11:21:24;102225.50;;;3.03;65.61
3206;BME280;1615;53.602;11.418;2024-01-07T11:23:51;102200.06;;;2.98;64.94
3206;BME280;1615;53.602;11.418;2024-01-07T11:26:18;102128.66;;;2.73;64.53
3206;BME280;1615;53.602;11.418;2024-01-07T11:31:11;102203.66;;;3.88;62.71
3206;BME280;1615;53.602;11.418;2024-01-07T11:33:37;102223.22;;;4.03;61.79
3206;BME280;1615;53.602;11.418;2024-01-07T11:36:04;102112.88;;;3.46;60.86
3206;BME280;1615;53.602;11.418;2024-01-07T11:38:30;102191.94;;;4.00;60.91
3206;BME280;1615;53.602;11.418;2024-01-07T11:40:56;102239.47;;;4.16;61.22
3206;BME280;1615;53.602;11.418;2024-01-07T11:43:22;102221.06;;;4.24;60.62
3206;BME280;1615;53.602;11.418;2024-01-07T11:45:49;102090.34;;;3.46;60.65
3206;BME280;1615;53.602;11.418;2024-01-07T11:48:15;102220.31;;;4.04;60.13
3206;BME280;1615;53.602;11.418;2024-01-07T11:50:41;102222.63;;;3.94;60.91
3206;BME280;1615;53.602;11.418;2024-01-07T11:53:07;102014.34;;;2.58;61.23
3206;BME280;1615;53.602;11.418;2024-01-07T11:55:33;102190.38;;;3.67;60.71
3206;BME280;1615;53.602;11.418;2024-01-07T11:58:01;102211.66;;;3.70;61.09
3206;BME280;1615;53.602;11.418;2024-01-07T12:00:27;102193.78;;;3.43;61.49
3206;BME280;1615;53.602;11.418;2024-01-07T12:02:52;102209.25;;;3.36;61.67
3206;BME280;1615;53.602;11.418;2024-01-07T12:05:18;102198.16;;;3.37;62.19
3206;BME280;1615;53.602;11.418;2024-01-07T12:07:44;102127.16;;;3.09;62.72
3206;BME280;1615;53.602;11.418;2024-01-07T12:10:09;102217.94;;;3.57;62.30
3206;BME280;1615;53.602;11.418;2024-01-07T12:12:39;102170.88;;;3.39;61.90
3206;BME280;1615;53.602;11.418;2024-01-07T12:15:06;102161.72;;;3.33;62.13
3206;BME280;1615;53.602;11.418;2024-01-07T12:17:32;102220.84;;;3.69;61.95
3206;BME280;1615;53.602;11.418;2024-01-07T12:19:57;102127.16;;;3.16;62.04
3206;BME280;1615;53.602;11.418;2024-01-07T12:22:23;102222.50;;;3.70;62.21
3206;BME280;1615;53.602;11.418;2024-01-07T12:25:00;102230.25;;;3.60;62.09
3206;BME280;1615;53.602;11.418;2024-01-07T12:27:25;102233.41;;;3.50;61.74
3206;BME280;1615;53.602;11.418;2024-01-07T12:29:55;102180.50;;;2.96;61.86
3206;BME280;1615;53.602;11.418;2024-01-07T12:32:21;102169.66;;;3.09;61.99
3206;BME280;1615;53.602;11.418;2024-01-07T12:34:47;102217.13;;;3.44;61.62
3206;BME280;1615;53.602;11.418;2024-01-07T12:37:13;102068.88;;;2.55;61.10
3206;BME280;1615;53.602;11.418;2024-01-07T12:39:38;102225.06;;;3.39;61.20
3206;BME280;1615;53.602;11.418;2024-01-07T12:42:04;102224.66;;;3.35;61.73
3206;BME280;1615;53.602;11.418;2024-01-07T12:44:29;102169.44;;;3.17;62.08
3206;BME280;1615;53.602;11.418;2024-01-07T12:46:54;102242.59;;;3.43;62.16
3206;BME280;1615;53.602;11.418;2024-01-07T12:49:20;102224.03;;;3.40;62.35
3206;BME280;1615;53.602;11.418;2024-01-07T12:51:47;102198.41;;;3.29;63.04
3206;BME280;1615;53.602;11.418;2024-01-07T12:54:12;102190.94;;;2.99;63.42
3206;BME280;1615;53.602;11.418;2024-01-07T12:56:37;102226.31;;;3.30;64.13
3206;BME280;1615;53.602;11.418;2024-01-07T12:59:02;102249.25;;;3.34;64.35
3206;BME280;1615;53.602;11.418;2024-01-07T13:01:28;102222.59;;;3.05;65.15
3206;BME280;1615;53.602;11.418;2024-01-07T13:03:53;102205.09;;;3.01;65.62
3206;BME280;1615;53.602;11.418;2024-01-07T13:06:18;102172.56;;;2.68;66.00